< < Back
Terminal Aerodrome Forecast


Current Version              Previous Versions:   1  2  3  4  5  6  7  8  9  

Terminal Aerodrome Forecast

193
FTUS42 KTAE 262321
TAFTLH
TAF
KTLH 262321Z 2700/2724 00000KT P6SM FEW050 SCT250
     FM271500 21006KT P6SM SCT050 SCT250=

Latest METAR

654
SAUS80 KWBC 270300 RRB
MTRTLH
METAR KTLH 270253Z 00000KT 10SM FEW250 27/24 A3007 RMK AO2 SLP181 LAST
AUGMENTED OBS T02670239 53013


USA.gov is the U.S. government's official web portal to all federal, state and local government web resources and services.